createdAt,value
2018-11-29T00:00:36.122Z,97739.25
2018-11-29T00:03:08.202Z,97734.17
2018-11-29T00:05:38.200Z,97729.97
2018-11-29T00:08:38.880Z,97722.28
2018-11-29T00:11:09.131Z,97723.24
2018-11-29T00:13:39.549Z,97717.23
2018-11-29T00:16:09.774Z,97718.16
2018-11-29T00:18:39.796Z,97724.89
2018-11-29T00:21:09.632Z,97731.77
2018-11-29T00:23:39.463Z,97726.89
2018-11-29T00:26:09.368Z,97723.44
2018-11-29T00:28:39.405Z,97734.55
2018-11-29T00:31:09.467Z,97734.27
2018-11-29T00:33:39.531Z,97742.03
2018-11-29T00:36:09.606Z,97744.52
2018-11-29T00:38:42.274Z,97735.11
2018-11-29T00:41:12.424Z,97730.13
2018-11-29T00:43:42.327Z,97720.84
2018-11-29T00:46:12.251Z,97731.28
2018-11-29T00:48:42.126Z,97730.13
2018-11-29T00:51:12.053Z,97755.83
2018-11-29T00:53:42.124Z,97754.02
2018-11-29T00:56:11.903Z,97755.27
2018-11-29T00:58:41.852Z,97740.03
2018-11-29T01:01:11.805Z,97743.77
2018-11-29T01:03:41.709Z,97746.83
2018-11-29T01:06:11.651Z,97743.95
2018-11-29T01:08:41.649Z,97752.68
2018-11-29T01:11:11.613Z,97745.77
2018-11-29T01:13:41.649Z,97736.63
2018-11-29T01:16:11.711Z,97738.56
2018-11-29T01:18:41.492Z,97731.27
2018-11-29T01:21:11.433Z,97728.94
2018-11-29T01:23:41.440Z,97723.95
2018-11-29T01:26:11.509Z,97735.29
2018-11-29T01:28:41.692Z,97734.89
2018-11-29T01:31:11.837Z,97730.13
2018-11-29T01:33:41.694Z,97732.25
2018-11-29T01:36:11.660Z,97728.01
2018-11-29T01:38:41.885Z,97727.45
2018-11-29T01:41:11.833Z,97722.84
2018-11-29T01:43:41.893Z,97727.17
2018-11-29T01:46:11.914Z,97718.82
2018-11-29T01:48:41.949Z,97723.62
2018-11-29T01:51:11.953Z,97724.08
2018-11-29T01:53:41.941Z,97720.53
2018-11-29T01:56:11.913Z,97717.11
2018-11-29T01:58:42.206Z,97716.14
2018-11-29T02:01:12.268Z,97709.45
2018-11-29T02:03:42.349Z,97701.57
2018-11-29T02:06:12.399Z,97695.44
2018-11-29T02:08:42.300Z,97688.74
2018-11-29T02:11:11.997Z,97694.84
2018-11-29T02:14:12.431Z,97697.15
2018-11-29T02:16:42.366Z,97706.27
2018-11-29T02:19:12.454Z,97704.44
2018-11-29T02:21:42.784Z,97709.60
2018-11-29T02:24:12.712Z,97701.38
2018-11-29T02:27:13.463Z,97702.81
2018-11-29T02:29:43.844Z,97700.23
2018-11-29T02:32:13.583Z,97698.58
2018-11-29T02:34:43.784Z,97697.33
2018-11-29T02:37:14.038Z,97699.05
2018-11-29T02:39:44.007Z,97698.89
2018-11-29T02:42:14.014Z,97698.70
2018-11-29T02:44:44.050Z,97695.25
2018-11-29T02:47:14.000Z,97691.11
2018-11-29T02:49:44.031Z,97690.05
2018-11-29T02:52:14.117Z,97683.54
2018-11-29T02:54:44.449Z,97674.82
2018-11-29T02:57:14.384Z,97678.47
2018-11-29T02:59:44.489Z,97678.19
2018-11-29T03:02:14.507Z,97678.84
2018-11-29T03:04:44.485Z,97678.19
2018-11-29T03:07:14.772Z,97681.42
2018-11-29T03:09:44.768Z,97674.51
2018-11-29T03:12:14.790Z,97672.98
2018-11-29T03:14:44.730Z,97669.53
2018-11-29T03:17:14.836Z,97666.16
2018-11-29T03:19:44.816Z,97664.27
2018-11-29T03:22:14.944Z,97658.41
2018-11-29T03:24:44.894Z,97663.17
2018-11-29T03:27:14.892Z,97652.24
2018-11-29T03:29:45.048Z,97646.30
2018-11-29T03:32:15.244Z,97648.59
2018-11-29T03:34:45.204Z,97658.27
2018-11-29T03:37:15.263Z,97656.44
2018-11-29T03:39:45.137Z,97651.45
2018-11-29T03:42:15.284Z,97648.78
2018-11-29T03:44:45.268Z,97655.00
2018-11-29T03:47:15.229Z,97653.20
2018-11-29T03:49:45.154Z,97642.75
2018-11-29T03:52:15.165Z,97640.16
2018-11-29T03:54:45.304Z,97641.63
2018-11-29T03:57:15.270Z,97643.63
2018-11-29T03:59:45.258Z,97640.16
2018-11-29T04:02:15.320Z,97639.70
2018-11-29T04:04:45.361Z,97639.88
2018-11-29T04:07:15.223Z,97634.91
2018-11-29T04:09:44.931Z,97630.02
2018-11-29T04:12:14.983Z,97628.97
2018-11-29T04:14:44.995Z,97625.23
2018-11-29T04:17:14.924Z,97624.27
2018-11-29T04:19:44.753Z,97617.16
2018-11-29T04:22:14.669Z,97612.65
2018-11-29T04:24:44.701Z,97611.40
2018-11-29T04:27:14.855Z,97611.30
2018-11-29T04:29:47.148Z,97619.64
2018-11-29T04:32:17.382Z,97612.45
2018-11-29T04:34:47.550Z,97604.85
2018-11-29T04:37:17.484Z,97601.63
2018-11-29T04:39:47.334Z,97605.82
2018-11-29T04:42:17.499Z,97608.41
2018-11-29T04:44:47.432Z,97600.84
2018-11-29T04:47:18.153Z,97604.58
2018-11-29T04:49:48.437Z,97610.15
2018-11-29T04:52:18.598Z,97615.77
2018-11-29T04:54:48.506Z,97616.83
2018-11-29T04:57:18.443Z,97611.77
2018-11-29T04:59:48.598Z,97606.01
2018-11-29T05:02:18.858Z,97608.50
2018-11-29T05:04:48.932Z,97596.83
2018-11-29T05:07:33.540Z,97586.69
2018-11-29T05:10:03.620Z,97580.56
2018-11-29T05:12:33.697Z,97583.60
2018-11-29T05:15:03.708Z,97578.63
2018-11-29T05:17:33.506Z,97582.64
2018-11-29T05:20:03.639Z,97583.97
2018-11-29T05:22:33.519Z,97589.69
2018-11-29T05:25:03.616Z,97596.41
2018-11-29T05:27:33.668Z,97590.19
2018-11-29T05:30:03.994Z,97590.09
2018-11-29T05:32:34.214Z,97582.83
2018-11-29T05:35:04.443Z,97588.08
2018-11-29T05:37:35.639Z,97587.61
2018-11-29T05:40:05.682Z,97585.13
2018-11-29T05:42:35.742Z,97585.13
2018-11-29T05:45:06.464Z,97584.93
2018-11-29T05:47:36.555Z,97583.69
2018-11-29T05:50:08.758Z,97583.97
2018-11-29T05:52:38.973Z,97581.25
2018-11-29T05:55:10.789Z,97587.38
2018-11-29T05:57:41.022Z,97584.37
2018-11-29T06:00:13.018Z,97593.08
2018-11-29T06:02:43.848Z,97595.92
2018-11-29T06:05:15.486Z,97589.75
2018-11-29T06:07:45.813Z,97583.72
2018-11-29T06:10:19.456Z,97582.75
2018-11-29T06:12:49.596Z,97590.02
2018-11-29T06:15:19.827Z,97594.30
2018-11-29T06:17:49.905Z,97604.16
2018-11-29T06:20:20.341Z,97600.70
2018-11-29T06:22:50.520Z,97599.73
2018-11-29T06:25:20.960Z,97594.56
2018-11-29T06:27:51.184Z,97604.31
2018-11-29T06:30:22.147Z,97607.08
2018-11-29T06:32:54.068Z,97604.86
2018-11-29T06:35:24.242Z,97621.30
2018-11-29T06:37:54.003Z,97615.55
2018-11-29T06:40:24.068Z,97607.55
2018-11-29T06:42:54.614Z,97606.92
2018-11-29T06:45:24.680Z,97599.27
2018-11-29T06:47:54.820Z,97600.01
2018-11-29T06:50:24.883Z,97599.89
2018-11-29T06:52:55.137Z,97595.19
2018-11-29T06:55:25.967Z,97589.47
2018-11-29T06:57:55.945Z,97591.45
2018-11-29T07:00:32.203Z,97588.84
2018-11-29T07:03:02.269Z,97586.13
2018-11-29T07:05:32.630Z,97597.24
2018-11-29T07:08:02.804Z,97595.96
2018-11-29T07:10:34.357Z,97593.13
2018-11-29T07:13:06.160Z,97580.70
2018-11-29T07:15:36.156Z,97582.48
2018-11-29T07:18:06.188Z,97584.90
2018-11-29T07:20:36.693Z,97580.98
2018-11-29T07:23:06.834Z,97580.27
2018-11-29T07:25:37.244Z,97583.20
2018-11-29T07:28:09.165Z,97579.84
2018-11-29T07:30:39.313Z,97585.32
2018-11-29T07:33:09.547Z,97587.30
2018-11-29T07:35:39.410Z,97584.27
2018-11-29T07:38:09.497Z,97579.11
2018-11-29T07:40:39.715Z,97564.00
2018-11-29T07:43:09.403Z,97570.69
2018-11-29T07:45:39.839Z,97568.53
2018-11-29T07:48:09.171Z,97562.87
2018-11-29T07:50:38.617Z,97561.36
2018-11-29T07:53:08.051Z,97558.98
2018-11-29T07:55:37.364Z,97561.98
2018-11-29T07:58:07.276Z,97555.14
2018-11-29T08:00:36.756Z,97546.07
2018-11-29T08:03:06.156Z,97550.72
2018-11-29T08:05:35.444Z,97554.25
2018-11-29T08:08:04.719Z,97544.50
2018-11-29T08:10:34.320Z,97538.29
2018-11-29T08:13:04.335Z,97548.92
2018-11-29T08:15:34.426Z,97548.84
2018-11-29T08:18:04.317Z,97547.94
2018-11-29T08:20:34.631Z,97553.09
2018-11-29T08:23:04.376Z,97549.09
2018-11-29T08:25:34.399Z,97555.77
2018-11-29T08:28:04.438Z,97547.02
2018-11-29T08:30:34.613Z,97542.05
2018-11-29T08:33:04.628Z,97535.55
2018-11-29T08:35:34.581Z,97531.73
2018-11-29T08:38:04.749Z,97528.38
2018-11-29T08:40:34.807Z,97521.41
2018-11-29T08:43:04.843Z,97522.94
2018-11-29T08:45:34.799Z,97521.59
2018-11-29T08:48:04.746Z,97520.48
2018-11-29T08:50:34.885Z,97510.89
2018-11-29T08:53:05.114Z,97501.52
2018-11-29T08:55:35.129Z,97506.63
2018-11-29T08:58:04.742Z,97503.75
2018-11-29T09:00:34.788Z,97501.23
2018-11-29T09:03:04.883Z,97499.24
2018-11-29T09:05:34.901Z,97504.04
2018-11-29T09:08:05.105Z,97499.90
2018-11-29T09:10:35.236Z,97497.32
2018-11-29T09:13:05.145Z,97504.04
2018-11-29T09:15:35.064Z,97496.45
2018-11-29T09:18:05.117Z,97491.88
2018-11-29T09:20:34.985Z,97495.97
2018-11-29T09:23:05.552Z,97494.35
2018-11-29T09:25:36.236Z,97491.20
2018-11-29T09:28:06.137Z,97485.63
2018-11-29T09:30:35.467Z,97485.05
2018-11-29T09:33:05.947Z,97484.47
2018-11-29T09:35:35.301Z,97481.41
2018-11-29T09:38:05.084Z,97480.23
2018-11-29T09:40:35.175Z,97469.70
2018-11-29T09:43:05.357Z,97464.14
2018-11-29T09:45:35.113Z,97462.48
2018-11-29T09:48:05.071Z,97458.34
2018-11-29T09:50:35.047Z,97456.26
2018-11-29T09:53:05.461Z,97454.40
2018-11-29T09:55:35.237Z,97446.05
2018-11-29T09:58:05.337Z,97437.99
2018-11-29T10:00:35.218Z,97432.11
2018-11-29T10:03:12.553Z,97435.34
2018-11-29T10:05:43.183Z,97433.59
2018-11-29T10:08:13.931Z,97424.87
2018-11-29T10:10:43.242Z,97425.83
2018-11-29T10:13:13.119Z,97419.67
2018-11-29T10:15:42.537Z,97422.91
2018-11-29T10:18:12.115Z,97407.28
2018-11-29T10:20:41.370Z,97400.05
2018-11-29T10:23:10.706Z,97399.46
2018-11-29T10:25:41.749Z,97392.93
2018-11-29T10:28:15.005Z,97397.33
2018-11-29T10:30:53.902Z,97393.25
2018-11-29T10:33:24.072Z,97391.91
2018-11-29T10:35:58.938Z,97384.59
2018-11-29T10:38:24.180Z,97386.30
2018-11-29T10:40:54.130Z,97388.98
2018-11-29T10:43:25.451Z,97374.77
2018-11-29T10:45:55.437Z,97377.78
2018-11-29T10:48:26.114Z,97376.16
2018-11-29T10:50:56.218Z,97374.03
2018-11-29T10:53:26.247Z,97372.48
2018-11-29T10:55:56.256Z,97375.64
2018-11-29T10:58:26.490Z,97370.20
2018-11-29T11:01:01.654Z,97368.06
2018-11-29T11:03:31.781Z,97360.42
2018-11-29T11:06:01.884Z,97360.12
2018-11-29T11:08:32.202Z,97358.39
2018-11-29T11:11:08.943Z,97359.79
2018-11-29T11:13:39.598Z,97354.61
2018-11-29T11:16:09.914Z,97349.77
2018-11-29T11:18:39.786Z,97345.64
2018-11-29T11:21:09.929Z,97350.00
2018-11-29T11:23:39.982Z,97350.80
2018-11-29T11:26:10.236Z,97349.89
2018-11-29T11:28:40.310Z,97341.94
2018-11-29T11:31:10.642Z,97340.53
2018-11-29T11:33:40.862Z,97337.28
2018-11-29T11:36:11.177Z,97331.03
2018-11-29T11:38:41.493Z,97318.06
2018-11-29T11:41:11.687Z,97317.30
2018-11-29T11:43:41.953Z,97315.75
2018-11-29T11:46:12.382Z,97313.39
2018-11-29T11:48:42.801Z,97315.28
2018-11-29T11:51:13.555Z,97317.59
2018-11-29T11:53:43.659Z,97317.78
2018-11-29T11:56:13.750Z,97318.38
2018-11-29T11:58:44.052Z,97316.83
2018-11-29T12:01:14.151Z,97309.64
2018-11-29T12:03:44.120Z,97305.06
2018-11-29T12:06:14.069Z,97289.84
2018-11-29T12:08:44.162Z,97284.12
2018-11-29T12:11:14.102Z,97284.98
2018-11-29T12:13:44.755Z,97277.94
2018-11-29T12:16:14.659Z,97270.31
2018-11-29T12:18:44.660Z,97266.55
2018-11-29T12:21:14.678Z,97265.92
2018-11-29T12:23:44.899Z,97269.81
2018-11-29T12:26:14.815Z,97263.89
2018-11-29T12:28:45.885Z,97244.90
2018-11-29T12:31:15.703Z,97237.33
2018-11-29T12:33:45.546Z,97226.53
2018-11-29T12:36:15.465Z,97233.27
2018-11-29T12:38:45.859Z,97233.97
2018-11-29T12:41:15.899Z,97234.66
2018-11-29T12:43:45.966Z,97237.09
2018-11-29T12:46:15.831Z,97238.72
2018-11-29T12:48:46.503Z,97229.91
2018-11-29T12:51:16.317Z,97235.77
2018-11-29T12:53:46.291Z,97233.89
2018-11-29T12:56:16.449Z,97234.27
2018-11-29T12:58:46.463Z,97241.70
2018-11-29T13:01:16.954Z,97239.97
2018-11-29T13:03:46.873Z,97237.81
2018-11-29T13:06:16.795Z,97235.63
2018-11-29T13:09:17.623Z,97233.13
2018-11-29T13:11:47.610Z,97228.66
2018-11-29T13:14:18.899Z,97230.77
2018-11-29T13:16:48.756Z,97228.27
2018-11-29T13:19:18.845Z,97227.82
2018-11-29T13:21:49.110Z,97227.02
2018-11-29T13:24:19.194Z,97220.32
2018-11-29T13:26:49.398Z,97211.09
2018-11-29T13:29:19.510Z,97208.14
2018-11-29T13:31:49.747Z,97201.82
2018-11-29T13:34:19.983Z,97202.97
2018-11-29T13:36:52.124Z,97210.02
2018-11-29T13:39:22.359Z,97208.31
2018-11-29T13:41:52.536Z,97202.38
2018-11-29T13:44:22.570Z,97190.20
2018-11-29T13:46:52.517Z,97189.71
2018-11-29T13:49:22.703Z,97197.06
2018-11-29T13:51:53.272Z,97200.36
2018-11-29T13:54:23.185Z,97199.01
2018-11-29T13:56:53.423Z,97195.19
2018-11-29T13:59:24.543Z,97200.11
2018-11-29T14:01:54.546Z,97199.25
2018-11-29T14:04:24.795Z,97197.55
2018-11-29T14:06:55.002Z,97193.34
2018-11-29T14:09:25.264Z,97194.98
2018-11-29T14:11:55.633Z,97186.16
2018-11-29T14:14:25.859Z,97180.23
2018-11-29T14:16:56.108Z,97179.22
2018-11-29T14:19:26.400Z,97180.71
2018-11-29T14:21:56.607Z,97186.78
2018-11-29T14:37:30.361Z,97161.45
2018-11-29T14:39:59.771Z,97158.25
2018-11-29T14:42:29.117Z,97155.98
2018-11-29T14:44:58.463Z,97157.16
2018-11-29T14:47:27.880Z,97150.30
2018-11-29T14:49:57.085Z,97153.44
2018-11-29T14:52:26.411Z,97151.56
2018-11-29T14:54:55.609Z,97147.33
2018-11-29T14:57:24.921Z,97135.64
2018-11-29T14:59:54.143Z,97130.51
2018-11-29T15:02:23.494Z,97130.33
2018-11-29T15:04:52.747Z,97132.69
2018-11-29T15:07:22.044Z,97143.28
2018-11-29T15:09:51.377Z,97147.19
2018-11-29T15:12:20.716Z,97156.08
2018-11-29T15:14:50.053Z,97159.25
2018-11-29T15:17:19.347Z,97163.86
2018-11-29T15:19:48.628Z,97169.46
2018-11-29T15:22:18.274Z,97167.58
2018-11-29T15:24:47.523Z,97159.49
2018-11-29T15:27:16.724Z,97160.25
2018-11-29T15:29:46.098Z,97149.25
2018-11-29T15:32:15.399Z,97148.73
2018-11-29T15:34:44.692Z,97155.72
2018-11-29T15:37:14.013Z,97151.53
2018-11-29T15:39:43.269Z,97159.77
2018-11-29T15:42:12.563Z,97153.38
2018-11-29T15:44:41.761Z,97151.19
2018-11-29T15:47:11.081Z,97152.73
2018-11-29T15:49:40.365Z,97153.84
2018-11-29T15:52:09.657Z,97154.14
2018-11-29T15:54:38.917Z,97146.20
2018-11-29T15:57:08.195Z,97148.20
2018-11-29T15:59:37.487Z,97149.00
2018-11-29T16:02:07.478Z,97150.93
2018-11-29T16:04:37.607Z,97150.47
2018-11-29T16:07:07.528Z,97149.91
2018-11-29T16:09:37.669Z,97150.40
2018-11-29T16:12:07.654Z,97155.20
2018-11-29T16:14:37.822Z,97160.26
2018-11-29T16:17:07.623Z,97156.45
2018-11-29T16:19:37.674Z,97150.44
2018-11-29T16:22:07.667Z,97153.16
2018-11-29T16:24:37.785Z,97149.72
2018-11-29T16:27:07.776Z,97150.66
2018-11-29T16:29:37.778Z,97150.66
2018-11-29T16:32:08.815Z,97145.52
2018-11-29T16:34:38.134Z,97151.75
2018-11-29T16:37:07.834Z,97148.02
2018-11-29T16:39:38.684Z,97143.14
2018-11-29T16:42:08.925Z,97154.09
2018-11-29T16:44:39.135Z,97147.67
2018-11-29T16:47:09.098Z,97136.76
2018-11-29T16:49:39.175Z,97141.74
2018-11-29T16:52:09.531Z,97145.03
2018-11-29T16:54:39.715Z,97144.95
2018-11-29T16:57:10.141Z,97149.78
2018-11-29T16:59:40.688Z,97150.45
2018-11-29T17:02:10.819Z,97148.42
2018-11-29T17:04:41.202Z,97151.21
2018-11-29T17:07:11.361Z,97147.81
2018-11-29T17:09:41.314Z,97149.81
2018-11-29T17:12:11.453Z,97154.04
2018-11-29T17:14:41.549Z,97150.19
2018-11-29T17:17:11.816Z,97150.11
2018-11-29T17:19:41.909Z,97154.94
2018-11-29T17:22:12.124Z,97149.95
2018-11-29T17:24:42.313Z,97141.69
2018-11-29T17:27:12.482Z,97144.97
2018-11-29T17:29:43.166Z,97144.97
2018-11-29T17:32:13.087Z,97144.89
2018-11-29T17:34:43.220Z,97142.78
2018-11-29T17:37:13.582Z,97136.39
2018-11-29T17:39:43.777Z,97139.18
2018-11-29T17:42:14.320Z,97142.63
2018-11-29T17:45:15.049Z,97141.08
2018-11-29T17:47:46.902Z,97133.60
2018-11-29T17:50:23.715Z,97130.62
2018-11-29T17:52:54.641Z,97124.88
2018-11-29T17:55:24.601Z,97126.87
2018-11-29T17:57:54.899Z,97127.19
2018-11-29T18:00:28.630Z,97128.92
2018-11-29T18:02:58.660Z,97127.75
2018-11-29T18:05:28.763Z,97123.14
2018-11-29T18:07:58.917Z,97118.01
2018-11-29T18:10:37.159Z,97121.09
2018-11-29T18:13:13.016Z,97115.66
2018-11-29T18:15:43.679Z,97113.77
2018-11-29T18:18:14.714Z,97118.45
2018-11-29T18:20:43.948Z,97119.39
2018-11-29T18:23:14.253Z,97115.17
2018-11-29T18:25:44.468Z,97113.92
2018-11-29T18:28:15.370Z,97107.23
2018-11-29T18:30:45.508Z,97106.75
2018-11-29T18:33:15.537Z,97105.13
2018-11-29T18:35:45.660Z,97100.22
2018-11-29T18:38:15.940Z,97090.56
2018-11-29T18:40:45.861Z,97087.61
2018-11-29T18:43:16.361Z,97085.12
2018-11-29T18:45:46.520Z,97081.69
2018-11-29T18:48:17.081Z,97071.72
2018-11-29T18:50:47.306Z,97070.78
2018-11-29T18:53:17.480Z,97067.04
2018-11-29T18:55:47.673Z,97073.75
2018-11-29T18:58:18.205Z,97057.56
2018-11-29T19:00:48.769Z,97060.05
2018-11-29T19:03:18.997Z,97063.83
2018-11-29T19:05:49.255Z,97070.47
2018-11-29T19:08:19.381Z,97053.34
2018-11-29T19:10:49.694Z,97048.28
2018-11-29T19:13:20.015Z,97051.45
2018-11-29T19:15:50.107Z,97049.45
2018-11-29T19:18:20.454Z,97050.70
2018-11-29T19:20:50.610Z,97052.32
2018-11-29T19:23:21.119Z,97053.19
2018-11-29T19:25:51.347Z,97052.09
2018-11-29T19:28:21.636Z,97058.63
2018-11-29T19:30:51.858Z,97058.17
2018-11-29T19:33:23.595Z,97065.80
2018-11-29T19:35:55.090Z,97070.97
2018-11-29T19:38:25.639Z,97073.34
2018-11-29T19:40:56.234Z,97071.72
2018-11-29T19:43:26.269Z,97068.93
2018-11-29T19:45:56.672Z,97071.88
2018-11-29T19:48:26.801Z,97072.74
2018-11-29T19:50:56.938Z,97076.86
2018-11-29T19:53:28.083Z,97073.61
2018-11-29T19:56:00.670Z,97076.25
2018-11-29T19:58:31.062Z,97073.01
2018-11-29T20:01:01.284Z,97069.08
2018-11-29T20:03:31.340Z,97059.42
2018-11-29T20:06:01.526Z,97059.27
2018-11-29T20:08:31.592Z,97055.08
2018-11-29T20:11:01.534Z,97059.27
2018-11-29T20:13:31.715Z,97050.85
2018-11-29T20:16:01.781Z,97053.19
2018-11-29T20:18:31.626Z,97054.89
2018-11-29T20:21:01.956Z,97051.72
2018-11-29T20:23:32.072Z,97050.85
2018-11-29T20:26:02.284Z,97065.80
2018-11-29T20:28:32.218Z,97058.73
2018-11-29T20:31:02.601Z,97054.89
2018-11-29T20:33:32.927Z,97063.91
2018-11-29T20:36:04.311Z,97065.56
2018-11-29T20:38:34.642Z,97078.47
2018-11-29T20:41:05.310Z,97094.73
2018-11-29T20:43:35.701Z,97101.16
2018-11-29T20:46:05.877Z,97103.34
2018-11-29T20:48:35.698Z,97095.88
2018-11-29T20:51:05.676Z,97095.08
2018-11-29T20:53:38.098Z,97090.10
2018-11-29T20:56:10.624Z,97082.47
2018-11-29T20:58:41.993Z,97078.55
2018-11-29T21:01:11.881Z,97069.08
2018-11-29T21:03:41.856Z,97075.68
2018-11-29T21:06:13.554Z,97064.09
2018-11-29T21:08:43.703Z,97067.53
2018-11-29T21:11:13.716Z,97056.77
2018-11-29T21:13:43.948Z,97054.44
2018-11-29T21:16:14.128Z,97061.83
2018-11-29T21:18:44.092Z,97054.59
2018-11-29T21:21:14.557Z,97048.36
2018-11-29T21:23:44.639Z,97043.87
2018-11-29T21:26:14.724Z,97046.66
2018-11-29T21:28:44.721Z,97044.92
2018-11-29T21:31:14.751Z,97037.38
2018-11-29T21:33:44.784Z,97036.63
2018-11-29T21:36:15.109Z,97025.87
2018-11-29T21:38:45.136Z,97030.84
2018-11-29T21:41:15.224Z,97039.48
2018-11-29T21:43:45.304Z,97042.28
2018-11-29T21:46:15.412Z,97043.91
2018-11-29T21:48:45.883Z,97030.62
2018-11-29T21:51:16.120Z,97029.67
2018-11-29T21:53:47.479Z,97025.45
2018-11-29T21:56:17.961Z,97026.39
2018-11-29T21:58:48.115Z,97025.64
2018-11-29T22:01:18.321Z,97040.09
2018-11-29T22:03:48.591Z,97031.38
2018-11-29T22:06:18.869Z,97027.64
2018-11-29T22:08:48.934Z,97028.88
2018-11-29T22:11:19.205Z,97026.39
2018-11-29T22:13:49.373Z,97024.69
2018-11-29T22:16:19.460Z,97020.02
2018-11-29T22:18:49.372Z,97017.03
2018-11-29T22:21:19.598Z,97013.70
2018-11-29T22:23:52.426Z,97011.75
2018-11-29T22:26:22.381Z,97000.24
2018-11-29T22:28:52.710Z,97000.73
2018-11-29T22:31:23.195Z,96999.00
2018-11-29T22:33:53.211Z,97007.26
2018-11-29T22:36:23.155Z,97004.77
2018-11-29T22:38:53.295Z,97006.47
2018-11-29T22:41:23.526Z,97004.92
2018-11-29T22:43:53.537Z,96996.05
2018-11-29T22:46:23.447Z,97002.36
2018-11-29T22:49:23.882Z,97000.73
2018-11-29T22:51:54.189Z,97016.43
2018-11-29T22:54:24.219Z,97008.95
2018-11-29T22:56:54.757Z,97012.24
2018-11-29T22:59:24.969Z,97005.53
2018-11-29T23:01:55.120Z,97003.03
2018-11-29T23:04:25.133Z,96994.81
2018-11-29T23:06:55.453Z,96997.11
2018-11-29T23:09:25.454Z,96997.91
2018-11-29T23:11:55.673Z,96986.23
2018-11-29T23:14:25.724Z,96984.35
2018-11-29T23:16:55.765Z,96981.00
2018-11-29T23:19:25.726Z,96973.91
2018-11-29T23:21:55.859Z,96978.43
2018-11-29T23:24:25.856Z,96971.91
2018-11-29T23:26:55.937Z,96980.13
2018-11-29T23:29:25.975Z,96991.83
2018-11-29T23:31:56.151Z,96989.26
2018-11-29T23:34:25.967Z,96980.44
2018-11-29T23:36:56.215Z,96984.66
2018-11-29T23:39:26.697Z,96978.59
2018-11-29T23:41:56.989Z,96979.38
2018-11-29T23:44:27.142Z,96973.91
2018-11-29T23:46:57.448Z,96977.27
2018-11-29T23:49:27.486Z,96981.08
2018-11-29T23:51:57.801Z,96978.59
2018-11-29T23:54:28.492Z,96978.77
2018-11-29T23:56:58.987Z,96974.88
2018-11-29T23:59:29.253Z,96991.22
